首页
METAR-TAF:

METAR-TAF

机场 :

Greenville Downtown Airport

格林维尔, 南卡罗来纳州, 美国

纬度: 34-50-46N, 经度: 082-20-46W, 海拔: 319米

当前天气观测

该预报发布于42分钟前的18:53 UTC
风速8节,风向南转西南
温度 31°C
湿度 55%
气压 1024 hPa
能見度: 16.1公里
天空无云

METAR: KGMU 231853Z 21008KT 10SM CLR 31/21 A3024 RMK AO2 SLP227 T03060206

时间: 15:35 (19:35 UTC)

预报

该预报发布于2小时和12分钟前的17:23 UTC
预报有效从23日的 18点(UTC)到 24日的 18点(UTC)
风速8节,风向西南
能見度: 10公里
散云层高于5000英尺
从 23日的 2300点(UTC)
风速4节,风向西转西南
能見度: 10公里
少量云层高于6000英尺
散云层高于25000英尺
从 24日的 1500点(UTC)
风速7节,风向西
能見度: 10公里
少量云层高于6000英尺

TAF: KGMU 231723Z 2318/2418 22008KT P6SM SCT050 FM232300 24004KT P6SM FEW060 SCT250 FM241500 28007KT P6SM FEW060

超过4000个机场的气象观测和天气预报(METAR&TAF报告)。

可查询的气象台以黄色和红色小点在地图上表示。

将鼠标移到小点上方,可查看气象台名称。

然后点击查看天气观测和预报。

如需切换地图:点击带黑十字的绿色按钮放大地图;点击带横线的绿色按钮缩小地图;或者点击绿色箭头查看邻近地区的地图。


METAR-TAF: